sensor_id;sensor_type;location;lat;lon;timestamp;P1;durP1;ratioP1;P2;durP2;ratioP2
29938;SDS011;16799;50.844;5.304;2024-03-08T00:01:55;39.30;;;18.27;;
29938;SDS011;16799;50.844;5.304;2024-03-08T00:04:20;29.53;;;17.03;;
29938;SDS011;16799;50.844;5.304;2024-03-08T00:06:46;35.83;;;17.47;;
29938;SDS011;16799;50.844;5.304;2024-03-08T00:09:13;40.73;;;19.30;;
29938;SDS011;16799;50.844;5.304;2024-03-08T00:11:39;33.40;;;17.10;;
29938;SDS011;16799;50.844;5.304;2024-03-08T00:14:04;38.20;;;20.83;;
29938;SDS011;16799;50.844;5.304;2024-03-08T00:16:32;42.63;;;18.40;;
29938;SDS011;16799;50.844;5.304;2024-03-08T00:18:58;34.70;;;17.67;;
29938;SDS011;16799;50.844;5.304;2024-03-08T00:21:24;29.70;;;17.20;;
29938;SDS011;16799;50.844;5.304;2024-03-08T00:23:51;30.17;;;20.17;;
29938;SDS011;16799;50.844;5.304;2024-03-08T00:26:19;34.23;;;18.50;;
29938;SDS011;16799;50.844;5.304;2024-03-08T00:28:47;29.07;;;18.00;;
29938;SDS011;16799;50.844;5.304;2024-03-08T00:31:15;28.80;;;16.77;;
29938;SDS011;16799;50.844;5.304;2024-03-08T00:33:42;40.90;;;21.73;;
29938;SDS011;16799;50.844;5.304;2024-03-08T00:36:07;35.57;;;20.23;;
29938;SDS011;16799;50.844;5.304;2024-03-08T00:38:33;36.43;;;20.67;;
29938;SDS011;16799;50.844;5.304;2024-03-08T00:40:59;33.67;;;20.40;;
29938;SDS011;16799;50.844;5.304;2024-03-08T00:43:25;30.60;;;20.63;;
29938;SDS011;16799;50.844;5.304;2024-03-08T00:45:51;42.23;;;21.60;;
29938;SDS011;16799;50.844;5.304;2024-03-08T00:48:16;43.53;;;22.47;;
29938;SDS011;16799;50.844;5.304;2024-03-08T00:50:42;32.17;;;18.70;;
29938;SDS011;16799;50.844;5.304;2024-03-08T00:53:10;29.70;;;19.40;;
29938;SDS011;16799;50.844;5.304;2024-03-08T00:55:39;29.07;;;19.70;;
29938;SDS011;16799;50.844;5.304;2024-03-08T00:58:05;31.80;;;20.43;;
29938;SDS011;16799;50.844;5.304;2024-03-08T01:00:30;28.53;;;20.13;;
29938;SDS011;16799;50.844;5.304;2024-03-08T01:02:56;35.50;;;18.83;;
29938;SDS011;16799;50.844;5.304;2024-03-08T01:05:22;40.83;;;21.90;;
29938;SDS011;16799;50.844;5.304;2024-03-08T01:07:49;34.00;;;20.63;;
29938;SDS011;16799;50.844;5.304;2024-03-08T01:10:15;44.43;;;21.63;;
29938;SDS011;16799;50.844;5.304;2024-03-08T01:12:41;34.30;;;21.60;;
29938;SDS011;16799;50.844;5.304;2024-03-08T01:15:08;32.50;;;20.37;;
29938;SDS011;16799;50.844;5.304;2024-03-08T01:17:35;35.70;;;21.03;;
29938;SDS011;16799;50.844;5.304;2024-03-08T01:20:02;39.70;;;20.60;;
29938;SDS011;16799;50.844;5.304;2024-03-08T01:22:28;37.27;;;20.50;;
29938;SDS011;16799;50.844;5.304;2024-03-08T01:24:55;38.73;;;22.53;;
29938;SDS011;16799;50.844;5.304;2024-03-08T01:27:21;34.77;;;20.53;;
29938;SDS011;16799;50.844;5.304;2024-03-08T01:29:47;33.00;;;20.70;;
29938;SDS011;16799;50.844;5.304;2024-03-08T01:32:13;40.03;;;22.27;;
29938;SDS011;16799;50.844;5.304;2024-03-08T01:34:39;37.47;;;23.03;;
29938;SDS011;16799;50.844;5.304;2024-03-08T01:37:05;36.43;;;20.33;;
29938;SDS011;16799;50.844;5.304;2024-03-08T01:39:31;29.77;;;20.10;;
29938;SDS011;16799;50.844;5.304;2024-03-08T01:41:57;39.23;;;21.70;;
29938;SDS011;16799;50.844;5.304;2024-03-08T01:44:23;39.00;;;23.70;;
29938;SDS011;16799;50.844;5.304;2024-03-08T01:46:49;40.93;;;20.97;;
29938;SDS011;16799;50.844;5.304;2024-03-08T01:49:17;35.43;;;21.90;;
29938;SDS011;16799;50.844;5.304;2024-03-08T01:51:45;38.37;;;23.00;;
29938;SDS011;16799;50.844;5.304;2024-03-08T01:54:12;30.70;;;19.30;;
29938;SDS011;16799;50.844;5.304;2024-03-08T01:56:40;33.37;;;22.90;;
29938;SDS011;16799;50.844;5.304;2024-03-08T01:59:06;34.70;;;20.80;;
29938;SDS011;16799;50.844;5.304;2024-03-08T02:01:33;36.77;;;22.67;;
29938;SDS011;16799;50.844;5.304;2024-03-08T02:03:59;30.57;;;21.00;;
29938;SDS011;16799;50.844;5.304;2024-03-08T02:06:25;35.80;;;24.27;;
29938;SDS011;16799;50.844;5.304;2024-03-08T02:08:51;40.87;;;25.87;;
29938;SDS011;16799;50.844;5.304;2024-03-08T02:11:17;33.27;;;20.07;;
29938;SDS011;16799;50.844;5.304;2024-03-08T02:13:44;34.43;;;22.30;;
29938;SDS011;16799;50.844;5.304;2024-03-08T02:16:09;34.30;;;21.97;;
29938;SDS011;16799;50.844;5.304;2024-03-08T02:18:35;38.83;;;22.30;;
29938;SDS011;16799;50.844;5.304;2024-03-08T02:21:02;35.03;;;21.00;;
29938;SDS011;16799;50.844;5.304;2024-03-08T02:23:29;39.23;;;22.67;;
29938;SDS011;16799;50.844;5.304;2024-03-08T02:25:55;46.23;;;20.97;;
29938;SDS011;16799;50.844;5.304;2024-03-08T02:28:22;35.00;;;21.13;;
29938;SDS011;16799;50.844;5.304;2024-03-08T02:30:49;38.07;;;22.73;;
29938;SDS011;16799;50.844;5.304;2024-03-08T02:33:21;40.57;;;23.00;;
29938;SDS011;16799;50.844;5.304;2024-03-08T02:35:48;34.00;;;22.90;;
29938;SDS011;16799;50.844;5.304;2024-03-08T02:38:16;35.77;;;20.73;;
29938;SDS011;16799;50.844;5.304;2024-03-08T02:40:44;38.87;;;22.20;;
29938;SDS011;16799;50.844;5.304;2024-03-08T02:43:10;31.47;;;20.07;;
29938;SDS011;16799;50.844;5.304;2024-03-08T02:45:37;36.63;;;23.67;;
29938;SDS011;16799;50.844;5.304;2024-03-08T02:48:04;33.90;;;22.90;;
29938;SDS011;16799;50.844;5.304;2024-03-08T02:50:31;41.80;;;22.20;;
29938;SDS011;16799;50.844;5.304;2024-03-08T02:52:58;37.83;;;22.43;;
29938;SDS011;16799;50.844;5.304;2024-03-08T02:55:24;32.60;;;21.63;;
29938;SDS011;16799;50.844;5.304;2024-03-08T02:57:51;43.80;;;22.27;;
29938;SDS011;16799;50.844;5.304;2024-03-08T03:00:17;40.17;;;23.03;;
29938;SDS011;16799;50.844;5.304;2024-03-08T03:02:44;40.13;;;22.90;;
29938;SDS011;16799;50.844;5.304;2024-03-08T03:05:11;32.50;;;20.97;;
29938;SDS011;16799;50.844;5.304;2024-03-08T03:07:37;35.07;;;22.47;;
29938;SDS011;16799;50.844;5.304;2024-03-08T03:10:03;38.73;;;22.53;;
29938;SDS011;16799;50.844;5.304;2024-03-08T03:12:30;35.80;;;24.57;;
29938;SDS011;16799;50.844;5.304;2024-03-08T03:14:56;33.97;;;21.40;;
29938;SDS011;16799;50.844;5.304;2024-03-08T03:17:23;39.73;;;23.40;;
29938;SDS011;16799;50.844;5.304;2024-03-08T03:19:49;41.07;;;24.80;;
29938;SDS011;16799;50.844;5.304;2024-03-08T03:22:16;44.87;;;25.20;;
29938;SDS011;16799;50.844;5.304;2024-03-08T03:24:43;40.10;;;23.03;;
29938;SDS011;16799;50.844;5.304;2024-03-08T03:27:11;40.50;;;24.10;;
29938;SDS011;16799;50.844;5.304;2024-03-08T03:29:41;33.13;;;21.90;;
29938;SDS011;16799;50.844;5.304;2024-03-08T03:32:10;41.47;;;23.17;;
29938;SDS011;16799;50.844;5.304;2024-03-08T03:34:37;38.00;;;21.07;;
29938;SDS011;16799;50.844;5.304;2024-03-08T03:37:03;38.57;;;22.37;;
29938;SDS011;16799;50.844;5.304;2024-03-08T03:39:29;34.37;;;20.80;;
29938;SDS011;16799;50.844;5.304;2024-03-08T03:41:59;43.10;;;23.67;;
29938;SDS011;16799;50.844;5.304;2024-03-08T03:44:27;38.17;;;23.60;;
29938;SDS011;16799;50.844;5.304;2024-03-08T03:46:53;43.60;;;25.23;;
29938;SDS011;16799;50.844;5.304;2024-03-08T03:49:19;39.13;;;18.53;;
29938;SDS011;16799;50.844;5.304;2024-03-08T03:51:45;38.23;;;22.87;;
29938;SDS011;16799;50.844;5.304;2024-03-08T03:54:11;37.77;;;21.20;;
29938;SDS011;16799;50.844;5.304;2024-03-08T03:56:37;36.17;;;19.23;;
29938;SDS011;16799;50.844;5.304;2024-03-08T03:59:05;45.13;;;22.63;;
29938;SDS011;16799;50.844;5.304;2024-03-08T04:01:31;50.73;;;23.80;;
29938;SDS011;16799;50.844;5.304;2024-03-08T04:03:58;43.77;;;19.43;;
29938;SDS011;16799;50.844;5.304;2024-03-08T04:06:23;33.07;;;21.17;;
29938;SDS011;16799;50.844;5.304;2024-03-08T04:08:49;33.27;;;20.10;;
29938;SDS011;16799;50.844;5.304;2024-03-08T04:11:15;34.63;;;22.30;;
29938;SDS011;16799;50.844;5.304;2024-03-08T04:13:43;37.10;;;19.93;;
29938;SDS011;16799;50.844;5.304;2024-03-08T04:16:09;45.93;;;21.80;;
29938;SDS011;16799;50.844;5.304;2024-03-08T04:18:36;42.20;;;22.90;;
29938;SDS011;16799;50.844;5.304;2024-03-08T04:21:07;42.60;;;22.70;;
29938;SDS011;16799;50.844;5.304;2024-03-08T04:23:35;35.80;;;20.70;;
29938;SDS011;16799;50.844;5.304;2024-03-08T04:26:02;49.77;;;25.13;;
29938;SDS011;16799;50.844;5.304;2024-03-08T04:28:29;41.47;;;21.37;;
29938;SDS011;16799;50.844;5.304;2024-03-08T04:30:56;38.30;;;18.50;;
29938;SDS011;16799;50.844;5.304;2024-03-08T04:33:22;37.93;;;22.60;;
29938;SDS011;16799;50.844;5.304;2024-03-08T04:35:48;40.40;;;23.27;;
29938;SDS011;16799;50.844;5.304;2024-03-08T04:38:14;52.07;;;23.83;;
29938;SDS011;16799;50.844;5.304;2024-03-08T04:40:40;47.73;;;25.30;;
29938;SDS011;16799;50.844;5.304;2024-03-08T04:43:06;30.20;;;19.40;;
29938;SDS011;16799;50.844;5.304;2024-03-08T04:45:33;37.47;;;20.33;;
29938;SDS011;16799;50.844;5.304;2024-03-08T04:47:59;40.23;;;20.30;;
29938;SDS011;16799;50.844;5.304;2024-03-08T04:50:25;36.30;;;19.50;;
29938;SDS011;16799;50.844;5.304;2024-03-08T04:52:54;38.40;;;20.60;;
29938;SDS011;16799;50.844;5.304;2024-03-08T04:55:20;38.23;;;22.27;;
29938;SDS011;16799;50.844;5.304;2024-03-08T04:57:46;32.80;;;21.97;;
29938;SDS011;16799;50.844;5.304;2024-03-08T05:00:13;36.03;;;21.50;;
29938;SDS011;16799;50.844;5.304;2024-03-08T05:02:40;41.73;;;23.50;;
29938;SDS011;16799;50.844;5.304;2024-03-08T05:05:06;46.10;;;21.13;;
29938;SDS011;16799;50.844;5.304;2024-03-08T05:07:33;44.97;;;23.43;;
29938;SDS011;16799;50.844;5.304;2024-03-08T05:09:59;34.00;;;21.97;;
29938;SDS011;16799;50.844;5.304;2024-03-08T05:12:25;35.70;;;21.07;;
29938;SDS011;16799;50.844;5.304;2024-03-08T05:14:51;38.10;;;21.20;;
29938;SDS011;16799;50.844;5.304;2024-03-08T05:17:16;40.73;;;22.37;;
29938;SDS011;16799;50.844;5.304;2024-03-08T05:19:42;31.70;;;20.00;;
29938;SDS011;16799;50.844;5.304;2024-03-08T05:22:08;40.53;;;20.30;;
29938;SDS011;16799;50.844;5.304;2024-03-08T05:24:34;39.73;;;22.50;;
29938;SDS011;16799;50.844;5.304;2024-03-08T05:27:00;34.90;;;20.83;;
29938;SDS011;16799;50.844;5.304;2024-03-08T05:29:27;42.60;;;23.67;;
29938;SDS011;16799;50.844;5.304;2024-03-08T05:31:54;33.03;;;21.07;;
29938;SDS011;16799;50.844;5.304;2024-03-08T05:34:20;37.90;;;19.43;;
29938;SDS011;16799;50.844;5.304;2024-03-08T05:36:50;39.43;;;21.10;;
29938;SDS011;16799;50.844;5.304;2024-03-08T05:39:16;40.87;;;21.80;;
29938;SDS011;16799;50.844;5.304;2024-03-08T05:41:42;43.43;;;26.80;;
29938;SDS011;16799;50.844;5.304;2024-03-08T05:44:09;44.33;;;21.60;;
29938;SDS011;16799;50.844;5.304;2024-03-08T05:46:35;40.83;;;22.30;;
29938;SDS011;16799;50.844;5.304;2024-03-08T05:49:02;45.20;;;23.73;;
29938;SDS011;16799;50.844;5.304;2024-03-08T05:51:34;44.60;;;21.10;;
29938;SDS011;16799;50.844;5.304;2024-03-08T05:54:01;46.33;;;22.03;;
29938;SDS011;16799;50.844;5.304;2024-03-08T05:56:28;32.57;;;19.13;;
29938;SDS011;16799;50.844;5.304;2024-03-08T05:58:54;50.77;;;21.70;;
29938;SDS011;16799;50.844;5.304;2024-03-08T06:01:21;44.83;;;21.80;;
29938;SDS011;16799;50.844;5.304;2024-03-08T06:03:47;33.67;;;21.63;;
29938;SDS011;16799;50.844;5.304;2024-03-08T06:06:14;46.33;;;21.73;;
29938;SDS011;16799;50.844;5.304;2024-03-08T06:08:40;31.07;;;19.83;;
29938;SDS011;16799;50.844;5.304;2024-03-08T06:11:08;34.17;;;21.30;;
29938;SDS011;16799;50.844;5.304;2024-03-08T06:13:34;42.27;;;21.80;;
29938;SDS011;16799;50.844;5.304;2024-03-08T06:16:01;50.30;;;21.40;;
29938;SDS011;16799;50.844;5.304;2024-03-08T06:18:30;38.23;;;21.60;;
29938;SDS011;16799;50.844;5.304;2024-03-08T06:20:56;39.57;;;21.60;;
29938;SDS011;16799;50.844;5.304;2024-03-08T06:23:22;40.33;;;23.80;;
29938;SDS011;16799;50.844;5.304;2024-03-08T06:25:48;37.37;;;21.10;;
29938;SDS011;16799;50.844;5.304;2024-03-08T06:28:14;43.80;;;23.60;;
29938;SDS011;16799;50.844;5.304;2024-03-08T06:30:40;50.47;;;24.03;;
29938;SDS011;16799;50.844;5.304;2024-03-08T06:33:06;36.23;;;22.30;;
29938;SDS011;16799;50.844;5.304;2024-03-08T06:35:32;43.43;;;22.80;;
29938;SDS011;16799;50.844;5.304;2024-03-08T06:37:58;38.17;;;21.57;;
29938;SDS011;16799;50.844;5.304;2024-03-08T06:40:24;41.70;;;22.60;;
29938;SDS011;16799;50.844;5.304;2024-03-08T06:42:49;42.83;;;22.90;;
29938;SDS011;16799;50.844;5.304;2024-03-08T06:45:17;33.83;;;21.30;;
29938;SDS011;16799;50.844;5.304;2024-03-08T06:47:46;46.47;;;23.30;;
29938;SDS011;16799;50.844;5.304;2024-03-08T06:50:12;36.57;;;21.07;;
29938;SDS011;16799;50.844;5.304;2024-03-08T06:52:38;37.67;;;21.93;;
29938;SDS011;16799;50.844;5.304;2024-03-08T06:55:05;36.00;;;20.13;;
29938;SDS011;16799;50.844;5.304;2024-03-08T06:57:31;53.57;;;24.00;;
29938;SDS011;16799;50.844;5.304;2024-03-08T06:59:57;45.60;;;23.00;;
29938;SDS011;16799;50.844;5.304;2024-03-08T07:02:23;46.63;;;21.27;;
29938;SDS011;16799;50.844;5.304;2024-03-08T07:04:51;39.47;;;21.37;;
29938;SDS011;16799;50.844;5.304;2024-03-08T07:07:18;40.90;;;19.57;;
29938;SDS011;16799;50.844;5.304;2024-03-08T07:09:45;41.47;;;20.50;;
29938;SDS011;16799;50.844;5.304;2024-03-08T07:12:11;50.87;;;21.43;;
29938;SDS011;16799;50.844;5.304;2024-03-08T07:14:38;38.03;;;21.13;;
29938;SDS011;16799;50.844;5.304;2024-03-08T07:17:10;46.20;;;22.53;;
29938;SDS011;16799;50.844;5.304;2024-03-08T07:19:36;42.47;;;22.50;;
29938;SDS011;16799;50.844;5.304;2024-03-08T07:22:03;38.73;;;21.90;;
29938;SDS011;16799;50.844;5.304;2024-03-08T07:24:33;45.17;;;20.40;;
29938;SDS011;16799;50.844;5.304;2024-03-08T07:27:01;32.63;;;19.77;;
29938;SDS011;16799;50.844;5.304;2024-03-08T07:29:31;31.20;;;18.23;;
29938;SDS011;16799;50.844;5.304;2024-03-08T07:32:00;35.17;;;19.50;;
29938;SDS011;16799;50.844;5.304;2024-03-08T07:34:25;44.37;;;21.00;;
29938;SDS011;16799;50.844;5.304;2024-03-08T07:36:51;40.90;;;19.93;;
29938;SDS011;16799;50.844;5.304;2024-03-08T07:39:17;35.60;;;19.53;;
29938;SDS011;16799;50.844;5.304;2024-03-08T07:41:44;29.57;;;18.27;;
29938;SDS011;16799;50.844;5.304;2024-03-08T07:44:09;28.20;;;17.53;;
29938;SDS011;16799;50.844;5.304;2024-03-08T07:46:35;38.67;;;21.47;;
29938;SDS011;16799;50.844;5.304;2024-03-08T07:49:02;36.93;;;19.80;;
29938;SDS011;16799;50.844;5.304;2024-03-08T07:51:28;35.37;;;19.57;;
29938;SDS011;16799;50.844;5.304;2024-03-08T07:53:54;36.27;;;19.30;;
29938;SDS011;16799;50.844;5.304;2024-03-08T07:56:20;36.93;;;20.70;;
29938;SDS011;16799;50.844;5.304;2024-03-08T07:58:46;30.63;;;20.33;;
29938;SDS011;16799;50.844;5.304;2024-03-08T08:01:17;31.10;;;16.90;;
29938;SDS011;16799;50.844;5.304;2024-03-08T08:03:43;24.83;;;15.70;;
29938;SDS011;16799;50.844;5.304;2024-03-08T08:06:09;34.93;;;19.30;;
29938;SDS011;16799;50.844;5.304;2024-03-08T08:08:35;31.03;;;17.63;;
29938;SDS011;16799;50.844;5.304;2024-03-08T08:11:01;30.63;;;19.33;;
29938;SDS011;16799;50.844;5.304;2024-03-08T08:13:27;28.60;;;19.00;;
29938;SDS011;16799;50.844;5.304;2024-03-08T08:15:57;36.10;;;19.40;;
29938;SDS011;16799;50.844;5.304;2024-03-08T08:18:23;39.93;;;20.00;;
29938;SDS011;16799;50.844;5.304;2024-03-08T08:20:50;25.90;;;17.20;;
29938;SDS011;16799;50.844;5.304;2024-03-08T08:23:17;35.70;;;17.97;;
29938;SDS011;16799;50.844;5.304;2024-03-08T08:25:44;40.43;;;18.00;;
29938;SDS011;16799;50.844;5.304;2024-03-08T08:28:10;30.13;;;17.47;;
29938;SDS011;16799;50.844;5.304;2024-03-08T08:30:37;31.37;;;19.57;;
29938;SDS011;16799;50.844;5.304;2024-03-08T08:33:03;30.00;;;17.50;;
29938;SDS011;16799;50.844;5.304;2024-03-08T08:35:30;30.87;;;19.23;;
29938;SDS011;16799;50.844;5.304;2024-03-08T08:37:57;36.50;;;18.40;;
29938;SDS011;16799;50.844;5.304;2024-03-08T08:40:24;27.80;;;16.73;;
29938;SDS011;16799;50.844;5.304;2024-03-08T08:42:50;26.73;;;17.13;;
29938;SDS011;16799;50.844;5.304;2024-03-08T08:45:18;34.63;;;18.70;;
29938;SDS011;16799;50.844;5.304;2024-03-08T08:47:44;27.47;;;16.43;;
29938;SDS011;16799;50.844;5.304;2024-03-08T08:50:10;29.83;;;17.80;;
29938;SDS011;16799;50.844;5.304;2024-03-08T08:52:37;28.80;;;17.47;;
29938;SDS011;16799;50.844;5.304;2024-03-08T08:55:04;30.03;;;16.57;;
29938;SDS011;16799;50.844;5.304;2024-03-08T08:57:31;34.07;;;17.83;;
29938;SDS011;16799;50.844;5.304;2024-03-08T08:59:58;33.73;;;17.60;;
29938;SDS011;16799;50.844;5.304;2024-03-08T09:02:25;32.53;;;19.37;;
29938;SDS011;16799;50.844;5.304;2024-03-08T09:04:51;31.03;;;18.83;;
29938;SDS011;16799;50.844;5.304;2024-03-08T09:07:17;34.23;;;17.30;;
29938;SDS011;16799;50.844;5.304;2024-03-08T09:09:44;27.70;;;19.20;;
29938;SDS011;16799;50.844;5.304;2024-03-08T09:12:10;28.33;;;17.40;;
29938;SDS011;16799;50.844;5.304;2024-03-08T09:14:41;33.00;;;17.47;;
29938;SDS011;16799;50.844;5.304;2024-03-08T09:17:08;24.63;;;16.30;;
29938;SDS011;16799;50.844;5.304;2024-03-08T09:19:34;28.40;;;17.10;;
29938;SDS011;16799;50.844;5.304;2024-03-08T09:22:01;27.30;;;17.37;;
29938;SDS011;16799;50.844;5.304;2024-03-08T09:24:29;24.10;;;14.50;;
29938;SDS011;16799;50.844;5.304;2024-03-08T09:26:56;26.63;;;15.67;;
29938;SDS011;16799;50.844;5.304;2024-03-08T09:29:23;31.67;;;18.00;;
29938;SDS011;16799;50.844;5.304;2024-03-08T09:31:49;31.23;;;18.90;;
29938;SDS011;16799;50.844;5.304;2024-03-08T09:34:15;28.67;;;17.07;;
29938;SDS011;16799;50.844;5.304;2024-03-08T09:36:40;32.23;;;17.00;;
29938;SDS011;16799;50.844;5.304;2024-03-08T09:39:06;37.63;;;17.87;;
29938;SDS011;16799;50.844;5.304;2024-03-08T09:41:33;20.43;;;15.67;;
29938;SDS011;16799;50.844;5.304;2024-03-08T09:43:59;28.13;;;16.77;;
29938;SDS011;16799;50.844;5.304;2024-03-08T09:46:25;34.43;;;19.60;;
29938;SDS011;16799;50.844;5.304;2024-03-08T09:48:52;26.70;;;17.00;;
29938;SDS011;16799;50.844;5.304;2024-03-08T09:51:20;32.47;;;16.37;;
29938;SDS011;16799;50.844;5.304;2024-03-08T09:53:50;28.23;;;17.80;;
29938;SDS011;16799;50.844;5.304;2024-03-08T09:56:16;21.83;;;14.97;;
29938;SDS011;16799;50.844;5.304;2024-03-08T09:58:42;26.27;;;17.27;;
29938;SDS011;16799;50.844;5.304;2024-03-08T10:01:28;29.93;;;17.50;;
29938;SDS011;16799;50.844;5.304;2024-03-08T10:03:53;30.23;;;17.63;;
29938;SDS011;16799;50.844;5.304;2024-03-08T10:06:22;32.07;;;18.73;;
29938;SDS011;16799;50.844;5.304;2024-03-08T10:08:50;19.53;;;15.60;;
29938;SDS011;16799;50.844;5.304;2024-03-08T10:11:19;22.80;;;17.23;;
29938;SDS011;16799;50.844;5.304;2024-03-08T10:13:47;26.63;;;17.10;;
29938;SDS011;16799;50.844;5.304;2024-03-08T10:16:13;29.30;;;17.43;;
29938;SDS011;16799;50.844;5.304;2024-03-08T10:18:39;29.13;;;17.13;;
29938;SDS011;16799;50.844;5.304;2024-03-08T10:21:06;21.10;;;15.87;;
29938;SDS011;16799;50.844;5.304;2024-03-08T10:23:35;26.70;;;15.70;;
29938;SDS011;16799;50.844;5.304;2024-03-08T10:26:11;28.33;;;16.27;;
29938;SDS011;16799;50.844;5.304;2024-03-08T10:28:50;24.20;;;17.20;;
29938;SDS011;16799;50.844;5.304;2024-03-08T10:31:17;26.13;;;16.60;;
29938;SDS011;16799;50.844;5.304;2024-03-08T10:33:44;23.87;;;16.40;;
29938;SDS011;16799;50.844;5.304;2024-03-08T10:36:11;37.70;;;17.10;;
29938;SDS011;16799;50.844;5.304;2024-03-08T10:38:39;31.47;;;18.83;;
29938;SDS011;16799;50.844;5.304;2024-03-08T10:41:07;30.07;;;19.20;;
29938;SDS011;16799;50.844;5.304;2024-03-08T10:46:32;28.33;;;17.70;;
29938;SDS011;16799;50.844;5.304;2024-03-08T10:49:22;26.10;;;15.83;;
29938;SDS011;16799;50.844;5.304;2024-03-08T10:52:01;29.03;;;15.60;;
29938;SDS011;16799;50.844;5.304;2024-03-08T10:54:29;27.37;;;18.50;;
29938;SDS011;16799;50.844;5.304;2024-03-08T10:56:57;27.67;;;17.50;;
29938;SDS011;16799;50.844;5.304;2024-03-08T10:59:24;30.00;;;18.43;;
29938;SDS011;16799;50.844;5.304;2024-03-08T11:01:52;30.57;;;17.40;;
29938;SDS011;16799;50.844;5.304;2024-03-08T11:04:18;25.23;;;16.53;;
29938;SDS011;16799;50.844;5.304;2024-03-08T11:06:47;31.07;;;17.90;;
29938;SDS011;16799;50.844;5.304;2024-03-08T11:09:27;22.73;;;17.27;;
29938;SDS011;16799;50.844;5.304;2024-03-08T11:12:40;23.23;;;16.60;;
29938;SDS011;16799;50.844;5.304;2024-03-08T11:15:00;23.63;;;16.10;;
29938;SDS011;16799;50.844;5.304;2024-03-08T11:20:03;21.60;;;15.47;;
29938;SDS011;16799;50.844;5.304;2024-03-08T11:22:55;25.93;;;16.37;;
29938;SDS011;16799;50.844;5.304;2024-03-08T11:25:33;22.47;;;16.47;;
29938;SDS011;16799;50.844;5.304;2024-03-08T11:28:17;26.80;;;16.00;;
29938;SDS011;16799;50.844;5.304;2024-03-08T11:33:29;19.63;;;14.80;;
29938;SDS011;16799;50.844;5.304;2024-03-08T11:36:02;19.97;;;16.17;;
29938;SDS011;16799;50.844;5.304;2024-03-08T11:38:43;24.80;;;16.60;;
29938;SDS011;16799;50.844;5.304;2024-03-08T11:41:09;28.70;;;16.63;;
29938;SDS011;16799;50.844;5.304;2024-03-08T11:43:39;22.80;;;16.07;;
29938;SDS011;16799;50.844;5.304;2024-03-08T11:46:12;21.93;;;15.17;;
29938;SDS011;16799;50.844;5.304;2024-03-08T11:48:39;26.20;;;16.17;;
29938;SDS011;16799;50.844;5.304;2024-03-08T11:51:08;23.17;;;16.27;;
29938;SDS011;16799;50.844;5.304;2024-03-08T11:53:39;25.70;;;16.67;;
29938;SDS011;16799;50.844;5.304;2024-03-08T11:56:06;22.70;;;15.30;;
29938;SDS011;16799;50.844;5.304;2024-03-08T11:58:37;35.20;;;15.90;;
29938;SDS011;16799;50.844;5.304;2024-03-08T12:01:04;21.33;;;16.03;;
29938;SDS011;16799;50.844;5.304;2024-03-08T12:03:42;23.93;;;14.50;;
29938;SDS011;16799;50.844;5.304;2024-03-08T12:06:10;26.27;;;16.00;;
29938;SDS011;16799;50.844;5.304;2024-03-08T12:08:38;23.60;;;16.00;;
29938;SDS011;16799;50.844;5.304;2024-03-08T12:11:04;29.13;;;16.33;;
29938;SDS011;16799;50.844;5.304;2024-03-08T12:13:31;19.63;;;13.70;;
29938;SDS011;16799;50.844;5.304;2024-03-08T12:15:59;24.73;;;16.80;;
29938;SDS011;16799;50.844;5.304;2024-03-08T12:18:25;24.07;;;15.17;;
29938;SDS011;16799;50.844;5.304;2024-03-08T12:23:45;18.13;;;15.00;;
29938;SDS011;16799;50.844;5.304;2024-03-08T12:26:15;23.27;;;16.23;;
29938;SDS011;16799;50.844;5.304;2024-03-08T12:28:51;20.40;;;14.27;;
29938;SDS011;16799;50.844;5.304;2024-03-08T12:31:17;22.23;;;15.47;;
29938;SDS011;16799;50.844;5.304;2024-03-08T12:36:15;19.83;;;13.97;;
29938;SDS011;16799;50.844;5.304;2024-03-08T12:38:45;21.03;;;13.90;;
29938;SDS011;16799;50.844;5.304;2024-03-08T12:41:17;21.30;;;14.20;;
29938;SDS011;16799;50.844;5.304;2024-03-08T12:43:47;20.77;;;11.17;;
29938;SDS011;16799;50.844;5.304;2024-03-08T12:46:17;15.97;;;12.97;;
29938;SDS011;16799;50.844;5.304;2024-03-08T12:48:45;17.13;;;12.23;;
29938;SDS011;16799;50.844;5.304;2024-03-08T12:51:18;18.00;;;10.70;;
29938;SDS011;16799;50.844;5.304;2024-03-08T12:53:45;16.73;;;11.93;;
29938;SDS011;16799;50.844;5.304;2024-03-08T12:56:12;14.97;;;11.53;;
29938;SDS011;16799;50.844;5.304;2024-03-08T12:58:42;15.60;;;11.40;;
29938;SDS011;16799;50.844;5.304;2024-03-08T13:01:08;16.07;;;12.47;;
29938;SDS011;16799;50.844;5.304;2024-03-08T13:03:34;18.43;;;12.97;;
29938;SDS011;16799;50.844;5.304;2024-03-08T13:06:03;17.80;;;12.70;;
29938;SDS011;16799;50.844;5.304;2024-03-08T13:08:36;17.40;;;13.27;;
29938;SDS011;16799;50.844;5.304;2024-03-08T13:11:05;12.67;;;11.37;;
29938;SDS011;16799;50.844;5.304;2024-03-08T13:13:32;18.10;;;12.97;;
29938;SDS011;16799;50.844;5.304;2024-03-08T13:16:00;21.30;;;14.53;;
29938;SDS011;16799;50.844;5.304;2024-03-08T13:18:27;22.87;;;15.33;;
29938;SDS011;16799;50.844;5.304;2024-03-08T13:20:53;16.10;;;13.30;;
29938;SDS011;16799;50.844;5.304;2024-03-08T13:23:20;16.77;;;13.87;;
29938;SDS011;16799;50.844;5.304;2024-03-08T13:25:45;16.33;;;14.50;;
29938;SDS011;16799;50.844;5.304;2024-03-08T13:28:14;19.53;;;13.97;;
29938;SDS011;16799;50.844;5.304;2024-03-08T13:30:42;19.80;;;13.83;;
29938;SDS011;16799;50.844;5.304;2024-03-08T13:33:09;23.10;;;16.03;;
29938;SDS011;16799;50.844;5.304;2024-03-08T13:35:34;18.67;;;14.80;;
29938;SDS011;16799;50.844;5.304;2024-03-08T13:38:00;19.70;;;14.07;;
29938;SDS011;16799;50.844;5.304;2024-03-08T13:40:29;16.43;;;12.03;;
29938;SDS011;16799;50.844;5.304;2024-03-08T13:42:56;19.13;;;14.00;;
29938;SDS011;16799;50.844;5.304;2024-03-08T13:45:21;19.40;;;14.10;;
29938;SDS011;16799;50.844;5.304;2024-03-08T13:47:48;26.07;;;14.10;;
29938;SDS011;16799;50.844;5.304;2024-03-08T13:50:18;20.30;;;14.27;;
29938;SDS011;16799;50.844;5.304;2024-03-08T13:52:48;26.40;;;14.33;;
29938;SDS011;16799;50.844;5.304;2024-03-08T13:55:16;19.30;;;13.50;;
29938;SDS011;16799;50.844;5.304;2024-03-08T13:57:47;20.83;;;13.50;;
29938;SDS011;16799;50.844;5.304;2024-03-08T14:00:13;19.50;;;14.47;;
29938;SDS011;16799;50.844;5.304;2024-03-08T14:02:40;15.60;;;11.10;;
29938;SDS011;16799;50.844;5.304;2024-03-08T14:05:09;24.57;;;16.03;;
29938;SDS011;16799;50.844;5.304;2024-03-08T14:07:36;20.70;;;13.83;;
29938;SDS011;16799;50.844;5.304;2024-03-08T14:10:02;17.80;;;13.70;;
29938;SDS011;16799;50.844;5.304;2024-03-08T14:12:28;17.10;;;13.17;;
29938;SDS011;16799;50.844;5.304;2024-03-08T14:14:55;17.70;;;13.50;;
29938;SDS011;16799;50.844;5.304;2024-03-08T14:17:24;20.50;;;14.03;;
29938;SDS011;16799;50.844;5.304;2024-03-08T14:19:52;18.80;;;12.80;;
29938;SDS011;16799;50.844;5.304;2024-03-08T14:22:19;16.47;;;12.90;;
29938;SDS011;16799;50.844;5.304;2024-03-08T14:24:45;14.70;;;12.60;;
29938;SDS011;16799;50.844;5.304;2024-03-08T14:27:11;23.10;;;13.80;;
29938;SDS011;16799;50.844;5.304;2024-03-08T14:29:37;22.73;;;14.43;;
29938;SDS011;16799;50.844;5.304;2024-03-08T14:32:04;17.80;;;13.10;;
29938;SDS011;16799;50.844;5.304;2024-03-08T14:34:31;17.73;;;12.80;;
29938;SDS011;16799;50.844;5.304;2024-03-08T14:36:59;17.27;;;12.33;;